sensor_id;sensor_type;location;lat;lon;timestamp;temperature;humidity
20446;DHT22;10382;49.140;9.234;2023-02-20T00:02:07;10.00;99.90
20446;DHT22;10382;49.140;9.234;2023-02-20T00:04:34;10.00;99.90
20446;DHT22;10382;49.140;9.234;2023-02-20T00:07:01;10.00;99.90
20446;DHT22;10382;49.140;9.234;2023-02-20T00:09:28;9.90;99.90
20446;DHT22;10382;49.140;9.234;2023-02-20T00:11:55;10.00;99.90
20446;DHT22;10382;49.140;9.234;2023-02-20T00:14:21;9.90;99.90
20446;DHT22;10382;49.140;9.234;2023-02-20T00:16:49;10.00;99.90
20446;DHT22;10382;49.140;9.234;2023-02-20T00:19:17;9.90;99.90
20446;DHT22;10382;49.140;9.234;2023-02-20T00:21:44;10.00;99.90
20446;DHT22;10382;49.140;9.234;2023-02-20T00:24:12;10.00;99.90
20446;DHT22;10382;49.140;9.234;2023-02-20T00:26:44;10.10;99.90
20446;DHT22;10382;49.140;9.234;2023-02-20T00:29:14;10.10;99.90
20446;DHT22;10382;49.140;9.234;2023-02-20T00:31:41;10.10;99.90
20446;DHT22;10382;49.140;9.234;2023-02-20T00:34:08;10.10;99.90
20446;DHT22;10382;49.140;9.234;2023-02-20T00:36:36;10.10;99.90
20446;DHT22;10382;49.140;9.234;2023-02-20T00:39:03;10.10;99.90
20446;DHT22;10382;49.140;9.234;2023-02-20T00:41:30;10.10;99.90
20446;DHT22;10382;49.140;9.234;2023-02-20T00:43:56;10.10;99.90
20446;DHT22;10382;49.140;9.234;2023-02-20T00:46:23;10.00;99.90
20446;DHT22;10382;49.140;9.234;2023-02-20T00:48:50;10.10;99.90
20446;DHT22;10382;49.140;9.234;2023-02-20T00:51:17;10.00;99.90
20446;DHT22;10382;49.140;9.234;2023-02-20T00:53:45;10.00;99.90
20446;DHT22;10382;49.140;9.234;2023-02-20T00:56:13;9.90;99.90
20446;DHT22;10382;49.140;9.234;2023-02-20T00:58:40;9.90;99.90
20446;DHT22;10382;49.140;9.234;2023-02-20T01:01:07;9.90;99.90
20446;DHT22;10382;49.140;9.234;2023-02-20T01:03:34;9.90;99.90
20446;DHT22;10382;49.140;9.234;2023-02-20T01:06:01;9.80;99.90
20446;DHT22;10382;49.140;9.234;2023-02-20T01:08:28;9.80;99.90
20446;DHT22;10382;49.140;9.234;2023-02-20T01:10:56;9.80;99.90
20446;DHT22;10382;49.140;9.234;2023-02-20T01:13:24;9.70;99.90
20446;DHT22;10382;49.140;9.234;2023-02-20T01:15:51;9.60;99.90
20446;DHT22;10382;49.140;9.234;2023-02-20T01:18:18;9.60;99.90
20446;DHT22;10382;49.140;9.234;2023-02-20T01:20:44;9.50;99.90
20446;DHT22;10382;49.140;9.234;2023-02-20T01:23:11;9.40;99.90
20446;DHT22;10382;49.140;9.234;2023-02-20T01:25:38;9.40;99.90
20446;DHT22;10382;49.140;9.234;2023-02-20T01:28:06;9.40;99.90
20446;DHT22;10382;49.140;9.234;2023-02-20T01:30:33;9.30;99.90
20446;DHT22;10382;49.140;9.234;2023-02-20T01:33:00;9.30;99.90
20446;DHT22;10382;49.140;9.234;2023-02-20T01:35:27;9.30;99.90
20446;DHT22;10382;49.140;9.234;2023-02-20T01:37:56;9.30;99.90
20446;DHT22;10382;49.140;9.234;2023-02-20T01:40:24;9.30;99.90
20446;DHT22;10382;49.140;9.234;2023-02-20T01:42:52;9.30;99.90
20446;DHT22;10382;49.140;9.234;2023-02-20T01:45:31;9.30;99.90
20446;DHT22;10382;49.140;9.234;2023-02-20T01:47:58;9.20;99.90
20446;DHT22;10382;49.140;9.234;2023-02-20T01:50:27;9.20;99.90
20446;DHT22;10382;49.140;9.234;2023-02-20T01:52:58;9.20;99.90
20446;DHT22;10382;49.140;9.234;2023-02-20T01:55:28;9.20;99.90
20446;DHT22;10382;49.140;9.234;2023-02-20T01:57:59;9.10;99.90
20446;DHT22;10382;49.140;9.234;2023-02-20T02:00:27;9.10;99.90
20446;DHT22;10382;49.140;9.234;2023-02-20T02:03:03;9.00;99.90
20446;DHT22;10382;49.140;9.234;2023-02-20T02:05:30;9.00;99.90
20446;DHT22;10382;49.140;9.234;2023-02-20T02:07:59;9.00;99.90
20446;DHT22;10382;49.140;9.234;2023-02-20T02:10:31;8.90;99.90
20446;DHT22;10382;49.140;9.234;2023-02-20T02:13:07;8.80;99.90
20446;DHT22;10382;49.140;9.234;2023-02-20T02:15:38;8.70;99.90
20446;DHT22;10382;49.140;9.234;2023-02-20T02:18:27;8.60;99.90
20446;DHT22;10382;49.140;9.234;2023-02-20T02:30:45;8.30;99.90
20446;DHT22;10382;49.140;9.234;2023-02-20T02:36:46;8.20;99.90
20446;DHT22;10382;49.140;9.234;2023-02-20T02:39:21;8.20;99.90
20446;DHT22;10382;49.140;9.234;2023-02-20T02:41:55;8.10;99.90
20446;DHT22;10382;49.140;9.234;2023-02-20T02:44:29;8.10;99.90
20446;DHT22;10382;49.140;9.234;2023-02-20T02:47:01;8.10;99.90
20446;DHT22;10382;49.140;9.234;2023-02-20T02:49:34;8.00;99.90
20446;DHT22;10382;49.140;9.234;2023-02-20T02:52:06;8.00;99.90
20446;DHT22;10382;49.140;9.234;2023-02-20T02:54:34;8.00;99.90
20446;DHT22;10382;49.140;9.234;2023-02-20T02:57:23;8.00;99.90
20446;DHT22;10382;49.140;9.234;2023-02-20T02:59:53;8.10;99.90
20446;DHT22;10382;49.140;9.234;2023-02-20T03:02:23;8.00;99.90
20446;DHT22;10382;49.140;9.234;2023-02-20T03:04:52;8.10;99.90
20446;DHT22;10382;49.140;9.234;2023-02-20T03:07:23;8.00;99.90
20446;DHT22;10382;49.140;9.234;2023-02-20T03:09:53;8.00;99.90
20446;DHT22;10382;49.140;9.234;2023-02-20T03:12:23;8.10;99.90
20446;DHT22;10382;49.140;9.234;2023-02-20T03:14:55;8.00;99.90
20446;DHT22;10382;49.140;9.234;2023-02-20T03:17:45;8.00;99.90
20446;DHT22;10382;49.140;9.234;2023-02-20T03:20:15;8.00;99.90
20446;DHT22;10382;49.140;9.234;2023-02-20T03:22:48;8.00;99.90
20446;DHT22;10382;49.140;9.234;2023-02-20T03:25:20;8.00;99.90
20446;DHT22;10382;49.140;9.234;2023-02-20T03:27:52;8.00;99.90
20446;DHT22;10382;49.140;9.234;2023-02-20T03:30:25;8.00;99.90
20446;DHT22;10382;49.140;9.234;2023-02-20T03:32:59;8.00;99.90
20446;DHT22;10382;49.140;9.234;2023-02-20T03:35:47;7.90;99.90
20446;DHT22;10382;49.140;9.234;2023-02-20T03:38:36;7.80;99.90
20446;DHT22;10382;49.140;9.234;2023-02-20T03:41:22;7.80;99.90
20446;DHT22;10382;49.140;9.234;2023-02-20T03:44:09;7.80;99.90
20446;DHT22;10382;49.140;9.234;2023-02-20T03:46:37;7.90;99.90
20446;DHT22;10382;49.140;9.234;2023-02-20T03:49:10;7.90;99.90
20446;DHT22;10382;49.140;9.234;2023-02-20T03:51:38;7.90;99.90
20446;DHT22;10382;49.140;9.234;2023-02-20T03:54:27;7.90;99.90
20446;DHT22;10382;49.140;9.234;2023-02-20T03:56:56;8.00;99.90
20446;DHT22;10382;49.140;9.234;2023-02-20T03:59:27;8.00;99.90
20446;DHT22;10382;49.140;9.234;2023-02-20T04:01:56;8.00;99.90
20446;DHT22;10382;49.140;9.234;2023-02-20T04:04:27;8.00;99.90
20446;DHT22;10382;49.140;9.234;2023-02-20T04:06:56;8.10;99.90
20446;DHT22;10382;49.140;9.234;2023-02-20T04:09:30;8.10;99.90
20446;DHT22;10382;49.140;9.234;2023-02-20T04:12:02;8.10;99.90
20446;DHT22;10382;49.140;9.234;2023-02-20T04:14:32;8.20;99.90
20446;DHT22;10382;49.140;9.234;2023-02-20T04:17:04;8.10;99.90
20446;DHT22;10382;49.140;9.234;2023-02-20T04:19:33;8.10;99.90
20446;DHT22;10382;49.140;9.234;2023-02-20T04:22:02;8.00;99.90
20446;DHT22;10382;49.140;9.234;2023-02-20T04:24:35;8.00;99.90
20446;DHT22;10382;49.140;9.234;2023-02-20T04:27:04;8.00;99.90
20446;DHT22;10382;49.140;9.234;2023-02-20T04:29:31;8.00;99.90
20446;DHT22;10382;49.140;9.234;2023-02-20T04:31:58;8.00;99.90
20446;DHT22;10382;49.140;9.234;2023-02-20T04:34:25;8.00;99.90
20446;DHT22;10382;49.140;9.234;2023-02-20T04:37:00;8.00;99.90
20446;DHT22;10382;49.140;9.234;2023-02-20T04:39:31;8.00;99.90
20446;DHT22;10382;49.140;9.234;2023-02-20T04:41:58;8.00;99.90
20446;DHT22;10382;49.140;9.234;2023-02-20T04:44:25;8.00;99.90
20446;DHT22;10382;49.140;9.234;2023-02-20T04:46:59;7.90;99.90
20446;DHT22;10382;49.140;9.234;2023-02-20T04:49:27;7.90;99.90
20446;DHT22;10382;49.140;9.234;2023-02-20T04:51:54;7.90;99.90
20446;DHT22;10382;49.140;9.234;2023-02-20T04:54:21;7.90;99.90
20446;DHT22;10382;49.140;9.234;2023-02-20T04:56:50;7.90;99.90
20446;DHT22;10382;49.140;9.234;2023-02-20T04:59:17;7.90;99.90
20446;DHT22;10382;49.140;9.234;2023-02-20T05:01:44;7.80;99.90
20446;DHT22;10382;49.140;9.234;2023-02-20T05:04:14;7.80;99.90
20446;DHT22;10382;49.140;9.234;2023-02-20T05:06:42;7.80;99.90
20446;DHT22;10382;49.140;9.234;2023-02-20T05:09:09;7.80;99.90
20446;DHT22;10382;49.140;9.234;2023-02-20T05:11:36;7.80;99.90
20446;DHT22;10382;49.140;9.234;2023-02-20T05:14:05;7.80;99.90
20446;DHT22;10382;49.140;9.234;2023-02-20T05:16:32;7.80;99.90
20446;DHT22;10382;49.140;9.234;2023-02-20T05:18:59;7.80;99.90
20446;DHT22;10382;49.140;9.234;2023-02-20T05:21:26;7.90;99.90
20446;DHT22;10382;49.140;9.234;2023-02-20T05:24:10;7.90;99.90
20446;DHT22;10382;49.140;9.234;2023-02-20T05:26:37;8.00;99.90
20446;DHT22;10382;49.140;9.234;2023-02-20T05:29:06;8.00;99.90
20446;DHT22;10382;49.140;9.234;2023-02-20T05:31:34;8.10;99.90
20446;DHT22;10382;49.140;9.234;2023-02-20T05:34:01;8.10;99.90
20446;DHT22;10382;49.140;9.234;2023-02-20T05:36:28;8.20;99.90
20446;DHT22;10382;49.140;9.234;2023-02-20T05:38:54;8.20;99.90
20446;DHT22;10382;49.140;9.234;2023-02-20T05:41:21;8.20;99.90
20446;DHT22;10382;49.140;9.234;2023-02-20T05:43:48;8.20;99.90
20446;DHT22;10382;49.140;9.234;2023-02-20T05:46:16;8.20;99.90
20446;DHT22;10382;49.140;9.234;2023-02-20T05:48:47;8.10;99.90
20446;DHT22;10382;49.140;9.234;2023-02-20T05:51:19;8.10;99.90
20446;DHT22;10382;49.140;9.234;2023-02-20T05:53:46;8.00;99.90
20446;DHT22;10382;49.140;9.234;2023-02-20T05:56:13;8.00;99.90
20446;DHT22;10382;49.140;9.234;2023-02-20T05:58:41;8.00;99.90
20446;DHT22;10382;49.140;9.234;2023-02-20T06:01:09;8.00;99.90
20446;DHT22;10382;49.140;9.234;2023-02-20T06:03:42;8.00;99.90
20446;DHT22;10382;49.140;9.234;2023-02-20T06:06:09;8.00;99.90
20446;DHT22;10382;49.140;9.234;2023-02-20T06:08:36;8.00;99.90
20446;DHT22;10382;49.140;9.234;2023-02-20T06:11:04;8.00;99.90
20446;DHT22;10382;49.140;9.234;2023-02-20T06:13:31;8.00;99.90
20446;DHT22;10382;49.140;9.234;2023-02-20T06:15:57;8.10;99.90
20446;DHT22;10382;49.140;9.234;2023-02-20T06:18:24;8.10;99.90
20446;DHT22;10382;49.140;9.234;2023-02-20T06:20:52;8.10;99.90
20446;DHT22;10382;49.140;9.234;2023-02-20T06:23:19;8.10;99.90
20446;DHT22;10382;49.140;9.234;2023-02-20T06:25:46;8.10;99.90
20446;DHT22;10382;49.140;9.234;2023-02-20T06:28:13;8.10;99.90
20446;DHT22;10382;49.140;9.234;2023-02-20T06:30:40;8.10;99.90
20446;DHT22;10382;49.140;9.234;2023-02-20T06:33:07;8.10;99.90
20446;DHT22;10382;49.140;9.234;2023-02-20T06:35:34;8.10;99.90
20446;DHT22;10382;49.140;9.234;2023-02-20T06:38:02;8.10;99.90
20446;DHT22;10382;49.140;9.234;2023-02-20T06:40:29;8.10;99.90
20446;DHT22;10382;49.140;9.234;2023-02-20T06:42:55;8.10;99.90
20446;DHT22;10382;49.140;9.234;2023-02-20T06:45:22;8.10;99.90
20446;DHT22;10382;49.140;9.234;2023-02-20T06:47:49;8.00;99.90
20446;DHT22;10382;49.140;9.234;2023-02-20T06:50:16;8.00;99.90
20446;DHT22;10382;49.140;9.234;2023-02-20T06:52:43;8.00;99.90
20446;DHT22;10382;49.140;9.234;2023-02-20T06:55:11;8.00;99.90
20446;DHT22;10382;49.140;9.234;2023-02-20T06:57:38;8.10;99.90
20446;DHT22;10382;49.140;9.234;2023-02-20T07:00:06;8.10;99.90
20446;DHT22;10382;49.140;9.234;2023-02-20T07:02:33;8.20;99.90
20446;DHT22;10382;49.140;9.234;2023-02-20T07:05:01;8.20;99.90
20446;DHT22;10382;49.140;9.234;2023-02-20T07:07:28;8.30;99.90
20446;DHT22;10382;49.140;9.234;2023-02-20T07:09:55;8.40;99.90
20446;DHT22;10382;49.140;9.234;2023-02-20T07:12:28;8.50;99.90
20446;DHT22;10382;49.140;9.234;2023-02-20T07:14:55;8.70;99.90
20446;DHT22;10382;49.140;9.234;2023-02-20T07:17:22;9.00;99.90
20446;DHT22;10382;49.140;9.234;2023-02-20T07:19:49;9.30;99.90
20446;DHT22;10382;49.140;9.234;2023-02-20T07:22:16;9.60;99.90
20446;DHT22;10382;49.140;9.234;2023-02-20T07:24:43;9.70;99.90
20446;DHT22;10382;49.140;9.234;2023-02-20T07:27:10;9.80;99.90
20446;DHT22;10382;49.140;9.234;2023-02-20T07:29:39;10.00;99.90
20446;DHT22;10382;49.140;9.234;2023-02-20T07:32:06;10.10;99.90
20446;DHT22;10382;49.140;9.234;2023-02-20T07:34:34;10.30;99.90
20446;DHT22;10382;49.140;9.234;2023-02-20T07:37:01;10.60;99.90
20446;DHT22;10382;49.140;9.234;2023-02-20T07:39:27;11.00;99.90
20446;DHT22;10382;49.140;9.234;2023-02-20T07:41:55;11.40;99.90
20446;DHT22;10382;49.140;9.234;2023-02-20T07:44:22;11.70;99.90
20446;DHT22;10382;49.140;9.234;2023-02-20T07:46:50;12.00;99.90
20446;DHT22;10382;49.140;9.234;2023-02-20T07:49:17;12.50;99.90
20446;DHT22;10382;49.140;9.234;2023-02-20T07:51:43;13.00;99.90
20446;DHT22;10382;49.140;9.234;2023-02-20T07:54:10;13.60;99.90
20446;DHT22;10382;49.140;9.234;2023-02-20T07:56:39;14.20;99.90
20446;DHT22;10382;49.140;9.234;2023-02-20T07:59:06;14.80;99.90
20446;DHT22;10382;49.140;9.234;2023-02-20T08:01:34;15.20;99.90
20446;DHT22;10382;49.140;9.234;2023-02-20T08:04:02;15.70;99.90
20446;DHT22;10382;49.140;9.234;2023-02-20T08:06:29;16.30;99.90
20446;DHT22;10382;49.140;9.234;2023-02-20T08:08:56;16.80;99.90
20446;DHT22;10382;49.140;9.234;2023-02-20T08:11:23;16.80;99.90
20446;DHT22;10382;49.140;9.234;2023-02-20T08:13:50;16.30;99.90
20446;DHT22;10382;49.140;9.234;2023-02-20T08:16:20;15.40;99.90
20446;DHT22;10382;49.140;9.234;2023-02-20T08:18:47;14.50;99.90
20446;DHT22;10382;49.140;9.234;2023-02-20T08:21:16;14.00;99.90
20446;DHT22;10382;49.140;9.234;2023-02-20T08:23:43;13.80;99.90
20446;DHT22;10382;49.140;9.234;2023-02-20T08:26:10;14.10;99.90
20446;DHT22;10382;49.140;9.234;2023-02-20T08:28:36;14.70;99.90
20446;DHT22;10382;49.140;9.234;2023-02-20T08:31:03;15.10;99.90
20446;DHT22;10382;49.140;9.234;2023-02-20T08:33:30;15.60;99.90
20446;DHT22;10382;49.140;9.234;2023-02-20T08:35:57;16.10;99.90
20446;DHT22;10382;49.140;9.234;2023-02-20T08:38:28;16.30;99.90
20446;DHT22;10382;49.140;9.234;2023-02-20T08:40:55;16.50;99.90
20446;DHT22;10382;49.140;9.234;2023-02-20T08:43:22;16.50;99.90
20446;DHT22;10382;49.140;9.234;2023-02-20T08:45:49;16.50;99.90
20446;DHT22;10382;49.140;9.234;2023-02-20T08:48:16;16.60;99.90
20446;DHT22;10382;49.140;9.234;2023-02-20T08:50:43;16.80;99.90
20446;DHT22;10382;49.140;9.234;2023-02-20T08:53:11;17.10;99.90
20446;DHT22;10382;49.140;9.234;2023-02-20T08:55:39;17.30;99.90
20446;DHT22;10382;49.140;9.234;2023-02-20T08:58:06;17.60;99.90
20446;DHT22;10382;49.140;9.234;2023-02-20T09:00:33;18.10;99.90
20446;DHT22;10382;49.140;9.234;2023-02-20T09:03:00;18.00;99.90
20446;DHT22;10382;49.140;9.234;2023-02-20T09:05:29;17.50;99.90
20446;DHT22;10382;49.140;9.234;2023-02-20T09:07:56;17.30;99.90
20446;DHT22;10382;49.140;9.234;2023-02-20T09:10:23;17.30;99.90
20446;DHT22;10382;49.140;9.234;2023-02-20T09:12:51;17.40;99.90
20446;DHT22;10382;49.140;9.234;2023-02-20T09:15:18;17.40;99.90
20446;DHT22;10382;49.140;9.234;2023-02-20T09:17:47;17.50;99.90
20446;DHT22;10382;49.140;9.234;2023-02-20T09:20:14;17.30;99.90
20446;DHT22;10382;49.140;9.234;2023-02-20T09:22:41;16.60;99.90
20446;DHT22;10382;49.140;9.234;2023-02-20T09:25:09;15.80;99.90
20446;DHT22;10382;49.140;9.234;2023-02-20T09:27:36;15.20;99.90
20446;DHT22;10382;49.140;9.234;2023-02-20T09:30:06;14.90;99.90
20446;DHT22;10382;49.140;9.234;2023-02-20T09:32:33;14.90;99.90
20446;DHT22;10382;49.140;9.234;2023-02-20T09:34:59;14.90;99.90
20446;DHT22;10382;49.140;9.234;2023-02-20T09:37:26;15.00;99.90
20446;DHT22;10382;49.140;9.234;2023-02-20T09:39:53;15.20;99.90
20446;DHT22;10382;49.140;9.234;2023-02-20T09:42:29;15.20;99.90
20446;DHT22;10382;49.140;9.234;2023-02-20T09:45:04;15.40;99.90
20446;DHT22;10382;49.140;9.234;2023-02-20T09:47:58;15.70;99.90
20446;DHT22;10382;49.140;9.234;2023-02-20T09:50:33;16.20;99.90
20446;DHT22;10382;49.140;9.234;2023-02-20T09:53:05;16.40;99.90
20446;DHT22;10382;49.140;9.234;2023-02-20T09:55:35;16.60;99.90
20446;DHT22;10382;49.140;9.234;2023-02-20T09:58:04;16.20;99.90
20446;DHT22;10382;49.140;9.234;2023-02-20T10:00:33;16.10;99.90
20446;DHT22;10382;49.140;9.234;2023-02-20T10:03:14;16.30;99.90
20446;DHT22;10382;49.140;9.234;2023-02-20T10:05:42;16.60;99.90
20446;DHT22;10382;49.140;9.234;2023-02-20T10:08:18;17.00;99.90
20446;DHT22;10382;49.140;9.234;2023-02-20T10:10:48;17.50;99.90
20446;DHT22;10382;49.140;9.234;2023-02-20T10:13:41;17.30;99.90
20446;DHT22;10382;49.140;9.234;2023-02-20T10:16:18;17.20;99.90
20446;DHT22;10382;49.140;9.234;2023-02-20T10:18:57;17.50;99.90
20446;DHT22;10382;49.140;9.234;2023-02-20T10:21:36;17.00;99.90
20446;DHT22;10382;49.140;9.234;2023-02-20T10:24:19;17.20;99.90
20446;DHT22;10382;49.140;9.234;2023-02-20T10:26:52;17.70;99.90
20446;DHT22;10382;49.140;9.234;2023-02-20T10:29:23;17.80;99.90
20446;DHT22;10382;49.140;9.234;2023-02-20T10:31:52;17.60;99.90
20446;DHT22;10382;49.140;9.234;2023-02-20T10:34:30;17.60;99.90
20446;DHT22;10382;49.140;9.234;2023-02-20T10:37:02;17.60;99.80
20446;DHT22;10382;49.140;9.234;2023-02-20T10:39:31;17.90;99.40
20446;DHT22;10382;49.140;9.234;2023-02-20T10:42:02;18.50;97.80
20446;DHT22;10382;49.140;9.234;2023-02-20T10:44:35;18.90;96.30
20446;DHT22;10382;49.140;9.234;2023-02-20T10:47:09;19.10;95.40
20446;DHT22;10382;49.140;9.234;2023-02-20T10:49:42;19.10;94.40
20446;DHT22;10382;49.140;9.234;2023-02-20T10:52:14;19.00;95.10
20446;DHT22;10382;49.140;9.234;2023-02-20T10:54:46;19.00;93.50
20446;DHT22;10382;49.140;9.234;2023-02-20T10:57:16;19.00;93.90
20446;DHT22;10382;49.140;9.234;2023-02-20T10:59:49;19.40;92.60
20446;DHT22;10382;49.140;9.234;2023-02-20T11:02:22;19.50;91.50
20446;DHT22;10382;49.140;9.234;2023-02-20T11:04:56;20.00;91.20
20446;DHT22;10382;49.140;9.234;2023-02-20T11:07:25;20.40;88.80
20446;DHT22;10382;49.140;9.234;2023-02-20T11:09:52;20.40;88.10
20446;DHT22;10382;49.140;9.234;2023-02-20T11:12:26;20.70;88.40
20446;DHT22;10382;49.140;9.234;2023-02-20T11:14:56;21.50;85.20
20446;DHT22;10382;49.140;9.234;2023-02-20T11:17:27;22.40;80.60
20446;DHT22;10382;49.140;9.234;2023-02-20T11:19:57;22.80;75.70
20446;DHT22;10382;49.140;9.234;2023-02-20T11:22:40;22.10;74.50
20446;DHT22;10382;49.140;9.234;2023-02-20T11:25:17;21.20;77.00
20446;DHT22;10382;49.140;9.234;2023-02-20T11:27:47;21.10;76.20
20446;DHT22;10382;49.140;9.234;2023-02-20T11:30:27;20.90;77.60
20446;DHT22;10382;49.140;9.234;2023-02-20T11:33:03;20.70;77.10
20446;DHT22;10382;49.140;9.234;2023-02-20T11:35:34;20.60;78.60
20446;DHT22;10382;49.140;9.234;2023-02-20T11:38:26;21.30;76.30
20446;DHT22;10382;49.140;9.234;2023-02-20T11:41:19;21.70;73.40
20446;DHT22;10382;49.140;9.234;2023-02-20T11:44:15;22.20;71.80
20446;DHT22;10382;49.140;9.234;2023-02-20T11:46:43;23.20;66.70
20446;DHT22;10382;49.140;9.234;2023-02-20T11:49:22;22.90;66.80
20446;DHT22;10382;49.140;9.234;2023-02-20T11:51:50;22.90;67.00
20446;DHT22;10382;49.140;9.234;2023-02-20T11:54:19;22.90;65.90
20446;DHT22;10382;49.140;9.234;2023-02-20T11:56:59;23.00;66.30
20446;DHT22;10382;49.140;9.234;2023-02-20T11:59:30;23.80;63.70
20446;DHT22;10382;49.140;9.234;2023-02-20T12:02:25;24.40;62.30
20446;DHT22;10382;49.140;9.234;2023-02-20T12:05:10;23.90;60.60
20446;DHT22;10382;49.140;9.234;2023-02-20T12:07:43;23.00;63.00
20446;DHT22;10382;49.140;9.234;2023-02-20T12:10:21;22.80;62.90
20446;DHT22;10382;49.140;9.234;2023-02-20T12:12:50;22.40;62.50
20446;DHT22;10382;49.140;9.234;2023-02-20T12:15:21;21.90;63.90
20446;DHT22;10382;49.140;9.234;2023-02-20T12:18:16;21.80;64.60
20446;DHT22;10382;49.140;9.234;2023-02-20T12:20:53;22.20;63.00
20446;DHT22;10382;49.140;9.234;2023-02-20T12:23:34;22.20;63.10
20446;DHT22;10382;49.140;9.234;2023-02-20T12:26:13;22.40;62.90
20446;DHT22;10382;49.140;9.234;2023-02-20T12:28:51;22.60;63.20
20446;DHT22;10382;49.140;9.234;2023-02-20T12:31:27;23.20;62.20
20446;DHT22;10382;49.140;9.234;2023-02-20T12:34:13;23.80;61.20
20446;DHT22;10382;49.140;9.234;2023-02-20T12:36:48;23.80;61.10
20446;DHT22;10382;49.140;9.234;2023-02-20T12:39:23;24.30;60.50
20446;DHT22;10382;49.140;9.234;2023-02-20T12:42:07;25.60;58.00
20446;DHT22;10382;49.140;9.234;2023-02-20T12:44:53;26.80;55.70
20446;DHT22;10382;49.140;9.234;2023-02-20T12:47:27;27.00;54.40
20446;DHT22;10382;49.140;9.234;2023-02-20T12:50:06;26.50;53.50
20446;DHT22;10382;49.140;9.234;2023-02-20T12:53:03;26.10;53.60
20446;DHT22;10382;49.140;9.234;2023-02-20T12:55:37;25.60;54.60
20446;DHT22;10382;49.140;9.234;2023-02-20T12:58:18;25.80;54.70
20446;DHT22;10382;49.140;9.234;2023-02-20T13:00:53;26.40;54.20
20446;DHT22;10382;49.140;9.234;2023-02-20T13:03:24;27.10;52.80
20446;DHT22;10382;49.140;9.234;2023-02-20T13:05:54;27.30;51.20
20446;DHT22;10382;49.140;9.234;2023-02-20T13:08:24;26.70;50.90
20446;DHT22;10382;49.140;9.234;2023-02-20T13:10:55;26.00;51.20
20446;DHT22;10382;49.140;9.234;2023-02-20T13:13:24;25.70;51.70
20446;DHT22;10382;49.140;9.234;2023-02-20T13:15:57;26.30;51.40
20446;DHT22;10382;49.140;9.234;2023-02-20T13:18:33;26.60;49.80
20446;DHT22;10382;49.140;9.234;2023-02-20T13:21:07;25.70;50.30
20446;DHT22;10382;49.140;9.234;2023-02-20T13:23:36;24.70;51.00
20446;DHT22;10382;49.140;9.234;2023-02-20T13:26:45;24.00;52.50
20446;DHT22;10382;49.140;9.234;2023-02-20T13:29:14;24.00;53.10
20446;DHT22;10382;49.140;9.234;2023-02-20T13:31:45;24.30;53.20
20446;DHT22;10382;49.140;9.234;2023-02-20T13:34:32;24.50;53.20
20446;DHT22;10382;49.140;9.234;2023-02-20T13:36:59;24.70;52.80
20446;DHT22;10382;49.140;9.234;2023-02-20T13:39:43;24.70;52.50
20446;DHT22;10382;49.140;9.234;2023-02-20T13:42:32;24.70;51.70
20446;DHT22;10382;49.140;9.234;2023-02-20T13:45:00;23.90;52.90
20446;DHT22;10382;49.140;9.234;2023-02-20T13:50:33;23.90;53.10
20446;DHT22;10382;49.140;9.234;2023-02-20T13:53:03;24.40;52.40
20446;DHT22;10382;49.140;9.234;2023-02-20T13:55:32;24.50;52.80
20446;DHT22;10382;49.140;9.234;2023-02-20T13:58:20;25.00;51.60
20446;DHT22;10382;49.140;9.234;2023-02-20T14:00:50;24.40;51.10
20446;DHT22;10382;49.140;9.234;2023-02-20T14:03:22;24.10;52.00
20446;DHT22;10382;49.140;9.234;2023-02-20T14:06:06;24.50;52.70
20446;DHT22;10382;49.140;9.234;2023-02-20T14:08:37;25.40;51.30
20446;DHT22;10382;49.140;9.234;2023-02-20T14:11:08;25.80;50.80
20446;DHT22;10382;49.140;9.234;2023-02-20T14:13:40;26.20;50.10
20446;DHT22;10382;49.140;9.234;2023-02-20T14:16:29;26.30;50.20
20446;DHT22;10382;49.140;9.234;2023-02-20T14:19:01;26.30;49.90
20446;DHT22;10382;49.140;9.234;2023-02-20T14:21:31;26.30;49.70
20446;DHT22;10382;49.140;9.234;2023-02-20T14:24:12;26.40;49.40
20446;DHT22;10382;49.140;9.234;2023-02-20T14:26:45;26.60;49.40
20446;DHT22;10382;49.140;9.234;2023-02-20T14:29:30;26.40;49.40
20446;DHT22;10382;49.140;9.234;2023-02-20T14:32:00;26.00;50.00
20446;DHT22;10382;49.140;9.234;2023-02-20T14:34:32;25.90;50.30
20446;DHT22;10382;49.140;9.234;2023-02-20T14:37:07;26.00;50.40
20446;DHT22;10382;49.140;9.234;2023-02-20T14:39:43;26.20;50.20
20446;DHT22;10382;49.140;9.234;2023-02-20T14:42:15;26.20;50.30
20446;DHT22;10382;49.140;9.234;2023-02-20T14:44:47;26.50;49.80
20446;DHT22;10382;49.140;9.234;2023-02-20T14:47:16;26.40;50.20
20446;DHT22;10382;49.140;9.234;2023-02-20T14:49:43;26.70;49.60
20446;DHT22;10382;49.140;9.234;2023-02-20T14:52:17;26.90;49.30
20446;DHT22;10382;49.140;9.234;2023-02-20T14:54:55;27.10;49.40
20446;DHT22;10382;49.140;9.234;2023-02-20T14:57:23;27.30;48.50
20446;DHT22;10382;49.140;9.234;2023-02-20T15:00:06;27.20;48.60
20446;DHT22;10382;49.140;9.234;2023-02-20T15:02:35;26.40;48.70
20446;DHT22;10382;49.140;9.234;2023-02-20T15:05:04;25.50;49.90
20446;DHT22;10382;49.140;9.234;2023-02-20T15:07:31;25.20;51.20
20446;DHT22;10382;49.140;9.234;2023-02-20T15:10:02;25.20;51.00
20446;DHT22;10382;49.140;9.234;2023-02-20T15:12:33;25.00;51.30
20446;DHT22;10382;49.140;9.234;2023-02-20T15:15:03;24.40;52.10
20446;DHT22;10382;49.140;9.234;2023-02-20T15:17:32;23.80;52.70
20446;DHT22;10382;49.140;9.234;2023-02-20T15:19:59;23.10;53.40
20446;DHT22;10382;49.140;9.234;2023-02-20T15:22:29;22.00;54.00
20446;DHT22;10382;49.140;9.234;2023-02-20T15:25:19;21.00;55.70
20446;DHT22;10382;49.140;9.234;2023-02-20T15:28:09;20.10;56.80
20446;DHT22;10382;49.140;9.234;2023-02-20T15:31:12;19.30;58.40
20446;DHT22;10382;49.140;9.234;2023-02-20T15:33:47;19.20;59.30
20446;DHT22;10382;49.140;9.234;2023-02-20T15:36:18;19.60;59.60
20446;DHT22;10382;49.140;9.234;2023-02-20T15:38:45;19.90;59.40
20446;DHT22;10382;49.140;9.234;2023-02-20T15:41:12;20.20;58.90
20446;DHT22;10382;49.140;9.234;2023-02-20T15:43:39;20.30;58.50
20446;DHT22;10382;49.140;9.234;2023-02-20T15:46:07;20.00;58.90
20446;DHT22;10382;49.140;9.234;2023-02-20T15:48:34;19.60;59.40
20446;DHT22;10382;49.140;9.234;2023-02-20T15:51:01;19.10;60.70
20446;DHT22;10382;49.140;9.234;2023-02-20T15:53:29;18.70;61.90
20446;DHT22;10382;49.140;9.234;2023-02-20T15:55:57;18.10;63.50
20446;DHT22;10382;49.140;9.234;2023-02-20T15:58:26;17.30;66.10
20446;DHT22;10382;49.140;9.234;2023-02-20T16:00:54;16.80;68.50
20446;DHT22;10382;49.140;9.234;2023-02-20T16:03:23;16.20;71.00
20446;DHT22;10382;49.140;9.234;2023-02-20T16:05:50;15.80;73.30
20446;DHT22;10382;49.140;9.234;2023-02-20T16:08:17;15.40;76.70
20446;DHT22;10382;49.140;9.234;2023-02-20T16:10:45;15.20;80.60
20446;DHT22;10382;49.140;9.234;2023-02-20T16:13:23;15.10;84.40
20446;DHT22;10382;49.140;9.234;2023-02-20T16:15:51;15.10;88.10
20446;DHT22;10382;49.140;9.234;2023-02-20T16:18:18;15.00;90.60
20446;DHT22;10382;49.140;9.234;2023-02-20T16:20:46;14.90;92.10